Time;durP1;ratioP1;P1;durP2;ratioP2;P2;SDS_P1;SDS_P2;PMS_P1;PMS_P2;Temp;Humidity;BMP_temperature;BMP_pressure;BME280_temperature;BME280_humidity;BME280_pressure;Samples;Min_cycle;Max_cycle;Signal;HPM_P1;HPM_P2
2022/04/15 00:00:41;;;;;;;3.08;2.47;;;;;;;;;;5081000;28;20104;-80
2022/04/15 00:03:07;;;;;;;3.63;2.38;;;;;;;;;;5115841;28;20038;-80
2022/04/15 00:05:45;;;;;;;2.17;1.98;;;;;;;;;;5080540;28;20441;-80
2022/04/15 00:08:12;;;;;;;4.07;1.88;;;;;;;;;;5098899;28;20106;-80
2022/04/15 00:10:45;;;;;;;3.45;2.10;;;;;;;;;;5115699;28;20103;-80
2022/04/15 00:13:12;;;;;;;3.83;2.10;;;;;;;;;;5081351;28;20035;-80
2022/04/15 00:15:38;;;;;;;2.75;2.22;;;;;;;;;;5097333;28;20442;-81
2022/04/15 00:18:03;;;;;;;2.60;2.40;;;;;;;;;;5115525;28;20043;-80
2022/04/15 00:20:29;;;;;;;3.97;2.20;;;;;;;;;;5097108;28;20382;-80
2022/04/15 00:22:54;;;;;;;3.13;2.05;;;;;;;;;;5097045;28;20099;-80
2022/04/15 00:25:20;;;;;;;3.22;2.47;;;;;;;;;;5115131;28;20451;-79
2022/04/15 00:27:46;;;;;;;2.17;1.88;;;;;;;;;;5115322;28;20050;-79
2022/04/15 00:30:12;;;;;;;3.00;2.13;;;;;;;;;;5115312;28;20459;-79
2022/04/15 00:32:40;;;;;;;3.65;2.25;;;;;;;;;;5097201;28;20031;-80
2022/04/15 00:35:06;;;;;;;3.58;2.67;;;;;;;;;;5097063;28;20076;-80
2022/04/15 00:37:31;;;;;;;3.95;2.53;;;;;;;;;;5115075;28;20055;-80
2022/04/15 00:39:58;;;;;;;3.75;2.50;;;;;;;;;;5097363;28;20062;-79
2022/04/15 00:42:23;;;;;;;3.15;2.25;;;;;;;;;;5115236;28;20031;-80
2022/04/15 00:44:59;;;;;;;4.80;2.70;;;;;;;;;;5113910;28;20036;-79
2022/04/15 00:47:36;;;;;;;4.43;2.83;;;;;;;;;;5115251;28;20451;-79
2022/04/15 00:50:03;;;;;;;2.95;2.22;;;;;;;;;;5114793;28;20019;-80
2022/04/15 00:52:33;;;;;;;2.75;2.10;;;;;;;;;;5096440;28;20491;-80
2022/04/15 00:55:01;;;;;;;3.17;2.42;;;;;;;;;;5097027;28;20055;-80
2022/04/15 00:57:29;;;;;;;2.95;1.85;;;;;;;;;;5114933;28;20133;-81
2022/04/15 00:59:57;;;;;;;2.80;2.00;;;;;;;;;;5096900;28;20024;-79
2022/04/15 01:02:24;;;;;;;3.40;2.22;;;;;;;;;;5096388;28;20134;-79
2022/04/15 01:04:52;;;;;;;3.58;2.35;;;;;;;;;;5096467;28;20032;-80
2022/04/15 01:07:19;;;;;;;3.58;1.73;;;;;;;;;;5095845;28;20024;-80
2022/04/15 01:09:47;;;;;;;2.22;2.03;;;;;;;;;;5096210;28;20030;-79
2022/04/15 01:12:13;;;;;;;2.92;2.22;;;;;;;;;;5096604;28;20031;-80
2022/04/15 01:14:39;;;;;;;2.75;2.10;;;;;;;;;;5096099;28;20543;-80
2022/04/15 01:17:04;;;;;;;3.03;2.10;;;;;;;;;;5079445;28;20492;-81
2022/04/15 01:19:30;;;;;;;2.33;2.13;;;;;;;;;;5096186;28;20032;-80
2022/04/15 01:21:56;;;;;;;3.33;2.10;;;;;;;;;;5096518;28;20023;-80
2022/04/15 01:24:23;;;;;;;2.10;1.90;;;;;;;;;;5114709;28;20024;-80
2022/04/15 01:26:48;;;;;;;2.60;2.00;;;;;;;;;;5114437;28;20054;-80
2022/04/15 01:29:15;;;;;;;3.53;2.10;;;;;;;;;;5095780;28;20019;-80
2022/04/15 01:31:40;;;;;;;2.45;1.90;;;;;;;;;;5114272;28;20032;-79
2022/04/15 01:34:06;;;;;;;3.70;2.03;;;;;;;;;;5114488;28;20019;-79
2022/04/15 01:36:31;;;;;;;2.95;1.80;;;;;;;;;;5114222;28;20031;-80
2022/04/15 01:38:58;;;;;;;2.42;2.17;;;;;;;;;;5114145;28;20046;-80
2022/04/15 01:41:23;;;;;;;2.90;1.80;;;;;;;;;;5114435;28;20035;-79
2022/04/15 01:43:49;;;;;;;2.63;2.00;;;;;;;;;;5114144;28;20042;-79
2022/04/15 01:46:14;;;;;;;3.42;2.15;;;;;;;;;;5113898;28;20036;-80
2022/04/15 01:48:40;;;;;;;2.75;2.00;;;;;;;;;;5078674;28;20038;-81
2022/04/15 01:51:05;;;;;;;2.80;1.85;;;;;;;;;;5114033;28;20027;-81
2022/04/15 01:53:31;;;;;;;2.58;2.08;;;;;;;;;;5113566;27;20084;-80
2022/04/15 01:55:56;;;;;;;2.25;1.85;;;;;;;;;;5114320;28;20027;-80
2022/04/15 01:58:21;;;;;;;3.08;1.90;;;;;;;;;;5113992;28;20032;-79
2022/04/15 02:00:47;;;;;;;3.00;2.28;;;;;;;;;;5113902;28;20450;-80
2022/04/15 02:03:12;;;;;;;3.03;2.13;;;;;;;;;;5113936;28;20149;-79
2022/04/15 02:05:37;;;;;;;3.00;2.00;;;;;;;;;;5095455;28;20036;-79
2022/04/15 02:08:03;;;;;;;4.57;2.28;;;;;;;;;;5095671;28;20081;-79
2022/04/15 02:10:28;;;;;;;5.32;2.03;;;;;;;;;;5112923;28;20038;-79
2022/04/15 02:12:54;;;;;;;2.47;1.90;;;;;;;;;;5113814;28;20470;-79
2022/04/15 02:15:19;;;;;;;3.75;1.95;;;;;;;;;;5113410;28;20031;-79
2022/04/15 02:17:45;;;;;;;2.50;1.88;;;;;;;;;;5098975;28;20081;-79
2022/04/15 02:20:11;;;;;;;1.88;1.77;;;;;;;;;;5099409;28;20449;-80
2022/04/15 02:22:37;;;;;;;2.55;2.03;;;;;;;;;;5118220;28;20026;-80
2022/04/15 02:25:03;;;;;;;2.38;1.75;;;;;;;;;;5099287;28;20036;-79
2022/04/15 02:27:28;;;;;;;3.22;1.80;;;;;;;;;;5082791;28;20057;-79
2022/04/15 02:29:53;;;;;;;2.95;2.00;;;;;;;;;;5117139;28;20089;-80
2022/04/15 02:32:19;;;;;;;2.47;1.80;;;;;;;;;;5117416;28;20077;-80
2022/04/15 02:34:44;;;;;;;3.83;1.90;;;;;;;;;;5117654;28;20063;-80
2022/04/15 02:37:10;;;;;;;3.92;1.92;;;;;;;;;;5117275;28;20024;-80
2022/04/15 02:39:35;;;;;;;3.05;1.90;;;;;;;;;;5117729;28;20030;-79
2022/04/15 02:42:01;;;;;;;3.78;1.90;;;;;;;;;;5117538;28;20030;-79
2022/04/15 02:44:27;;;;;;;4.70;2.05;;;;;;;;;;5081956;28;20128;-79
2022/04/15 02:46:54;;;;;;;1.70;1.60;;;;;;;;;;5098953;28;20143;-80
2022/04/15 02:49:20;;;;;;;2.97;1.70;;;;;;;;;;5116871;28;20023;-79
2022/04/15 02:51:45;;;;;;;3.45;2.00;;;;;;;;;;5098804;28;20024;-80
2022/04/15 02:54:10;;;;;;;1.98;1.63;;;;;;;;;;5098821;28;20112;-80
2022/04/15 02:56:36;;;;;;;3.78;2.10;;;;;;;;;;5116768;28;20039;-80
2022/04/15 02:59:01;;;;;;;2.47;1.98;;;;;;;;;;5116717;28;20045;-80
2022/04/15 03:01:26;;;;;;;2.55;1.80;;;;;;;;;;5099136;28;20059;-80
2022/04/15 03:03:52;;;;;;;2.35;1.85;;;;;;;;;;5081912;28;20036;-80
2022/04/15 03:06:17;;;;;;;3.53;1.70;;;;;;;;;;5098885;28;20063;-80
2022/04/15 03:08:43;;;;;;;4.10;2.00;;;;;;;;;;5116777;28;20400;-80
2022/04/15 03:11:08;;;;;;;3.28;1.95;;;;;;;;;;5098459;28;20059;-80
2022/04/15 03:13:34;;;;;;;3.03;1.42;;;;;;;;;;5098749;28;20039;-80
2022/04/15 03:16:00;;;;;;;2.60;1.77;;;;;;;;;;5116675;28;20470;-80
2022/04/15 03:18:26;;;;;;;3.20;1.80;;;;;;;;;;5099423;28;20056;-80
2022/04/15 03:20:51;;;;;;;2.30;1.60;;;;;;;;;;5098144;28;20110;-81
2022/04/15 03:23:19;;;;;;;1.67;1.50;;;;;;;;;;5098428;28;20027;-80
2022/04/15 03:25:46;;;;;;;2.75;1.67;;;;;;;;;;5098448;28;20559;-80
2022/04/15 03:28:12;;;;;;;3.30;1.90;;;;;;;;;;5116318;28;20024;-80
2022/04/15 03:30:37;;;;;;;4.50;2.28;;;;;;;;;;5115649;28;20031;-80
2022/04/15 03:33:03;;;;;;;2.30;1.83;;;;;;;;;;5116364;28;20490;-79
2022/04/15 03:35:28;;;;;;;4.47;1.70;;;;;;;;;;5098072;28;20036;-80
2022/04/15 03:37:54;;;;;;;2.42;1.70;;;;;;;;;;5080888;28;20028;-80
2022/04/15 03:40:20;;;;;;;4.05;1.95;;;;;;;;;;5116356;28;20028;-80
2022/04/15 03:42:51;;;;;;;3.85;1.90;;;;;;;;;;5097989;28;20031;-80
2022/04/15 03:45:19;;;;;;;2.22;1.42;;;;;;;;;;5097820;28;20071;-80
2022/04/15 03:47:51;;;;;;;1.92;1.67;;;;;;;;;;5116028;28;20054;-80
2022/04/15 03:50:17;;;;;;;2.88;1.85;;;;;;;;;;5097777;28;20046;-80
2022/04/15 03:52:46;;;;;;;3.90;1.67;;;;;;;;;;5097462;28;20196;-80
2022/04/15 03:55:13;;;;;;;2.38;1.38;;;;;;;;;;5115604;28;20536;-80
2022/04/15 03:57:39;;;;;;;2.15;1.67;;;;;;;;;;5116144;28;20416;-80
2022/04/15 04:00:07;;;;;;;2.75;1.67;;;;;;;;;;5097538;28;20020;-80
2022/04/15 04:02:33;;;;;;;3.50;1.50;;;;;;;;;;5081346;28;20019;-80
2022/04/15 04:04:58;;;;;;;2.35;1.42;;;;;;;;;;5115608;28;20028;-81
2022/04/15 04:07:23;;;;;;;4.13;1.58;;;;;;;;;;5098121;28;20362;-81
2022/04/15 04:09:49;;;;;;;2.20;1.30;;;;;;;;;;5097263;28;20034;-81
2022/04/15 04:12:14;;;;;;;3.30;1.50;;;;;;;;;;5116279;28;20028;-81
2022/04/15 04:14:39;;;;;;;2.15;1.55;;;;;;;;;;5080173;28;20116;-82
2022/04/15 04:17:05;;;;;;;4.60;1.40;;;;;;;;;;5115715;28;20089;-82
2022/04/15 04:19:30;;;;;;;2.08;1.20;;;;;;;;;;5097264;28;20526;-82
2022/04/15 04:21:55;;;;;;;1.30;1.15;;;;;;;;;;5115409;28;20031;-81
2022/04/15 04:24:21;;;;;;;2.53;1.30;;;;;;;;;;5115768;28;20083;-80
2022/04/15 04:26:46;;;;;;;2.92;1.30;;;;;;;;;;5097058;28;20158;-81
2022/04/15 04:29:11;;;;;;;2.22;1.30;;;;;;;;;;5115608;28;20519;-80
2022/04/15 04:31:37;;;;;;;2.80;1.40;;;;;;;;;;5114906;28;20110;-81
2022/04/15 04:34:02;;;;;;;2.65;1.33;;;;;;;;;;5116416;28;20096;-81
2022/04/15 04:36:27;;;;;;;3.22;1.33;;;;;;;;;;5115687;28;20477;-81
2022/04/15 04:38:53;;;;;;;2.03;1.20;;;;;;;;;;5116537;28;20032;-81
2022/04/15 04:41:18;;;;;;;1.20;1.10;;;;;;;;;;5079760;28;20020;-81
2022/04/15 04:43:44;;;;;;;2.78;1.40;;;;;;;;;;5115489;28;20103;-80
2022/04/15 04:46:09;;;;;;;1.98;1.25;;;;;;;;;;5080381;28;20406;-81
2022/04/15 04:48:34;;;;;;;2.83;1.30;;;;;;;;;;5097182;28;20027;-80
2022/04/15 04:51:00;;;;;;;2.47;1.33;;;;;;;;;;5080159;28;20031;-80
2022/04/15 04:53:25;;;;;;;1.70;1.23;;;;;;;;;;5115189;28;20036;-80
2022/04/15 04:55:51;;;;;;;1.98;1.30;;;;;;;;;;5114940;28;20147;-80
2022/04/15 04:58:16;;;;;;;2.40;1.27;;;;;;;;;;5096803;28;20034;-81
2022/04/15 05:00:41;;;;;;;1.30;1.10;;;;;;;;;;5099640;28;20026;-81
2022/04/15 05:03:07;;;;;;;3.03;1.40;;;;;;;;;;5117532;28;20031;-80
2022/04/15 05:05:32;;;;;;;4.28;1.27;;;;;;;;;;5117165;28;20023;-80
2022/04/15 05:07:57;;;;;;;2.75;1.15;;;;;;;;;;5101322;28;20031;-80
2022/04/15 05:10:23;;;;;;;3.67;1.17;;;;;;;;;;5118186;28;20032;-80
2022/04/15 05:12:49;;;;;;;1.85;1.00;;;;;;;;;;5099250;28;20023;-80
2022/04/15 05:15:14;;;;;;;2.00;1.00;;;;;;;;;;5100061;28;20537;-80
2022/04/15 05:17:39;;;;;;;1.35;1.20;;;;;;;;;;5099421;28;20036;-80
2022/04/15 05:20:06;;;;;;;1.95;1.30;;;;;;;;;;5100178;28;20023;-80
2022/04/15 05:22:31;;;;;;;2.92;1.40;;;;;;;;;;5081062;28;20506;-81
2022/04/15 05:24:57;;;;;;;1.50;1.13;;;;;;;;;;5098988;28;20036;-80
2022/04/15 05:27:22;;;;;;;1.63;1.08;;;;;;;;;;5117669;28;20023;-79
2022/04/15 05:29:48;;;;;;;2.45;1.27;;;;;;;;;;5117101;28;20386;-80
2022/04/15 05:32:13;;;;;;;1.67;1.13;;;;;;;;;;5098845;28;20038;-80
2022/04/15 05:34:39;;;;;;;3.13;1.60;;;;;;;;;;5117594;28;20031;-80
2022/04/15 05:37:04;;;;;;;3.42;1.55;;;;;;;;;;5100572;28;20034;-80
2022/04/15 05:39:30;;;;;;;2.08;1.20;;;;;;;;;;5117816;28;20023;-80
2022/04/15 05:41:55;;;;;;;1.83;1.27;;;;;;;;;;5116513;28;20059;-80
2022/04/15 05:44:21;;;;;;;3.08;1.40;;;;;;;;;;5098519;28;20076;-81
2022/04/15 05:46:46;;;;;;;2.90;1.42;;;;;;;;;;5098045;28;20038;-80
2022/04/15 05:49:16;;;;;;;1.88;1.10;;;;;;;;;;5116090;28;20038;-80
2022/04/15 05:51:42;;;;;;;3.35;1.38;;;;;;;;;;5098884;28;20107;-80
2022/04/15 05:54:08;;;;;;;5.07;1.75;;;;;;;;;;5116611;28;20050;-80
2022/04/15 05:56:34;;;;;;;5.38;1.60;;;;;;;;;;5098849;28;20035;-79
2022/04/15 05:58:59;;;;;;;7.32;1.92;;;;;;;;;;5115869;28;20059;-79
2022/04/15 06:01:24;;;;;;;13.57;1.80;;;;;;;;;;5097922;28;20031;-79
2022/04/15 06:03:50;;;;;;;5.20;2.13;;;;;;;;;;5118941;28;20055;-79
2022/04/15 06:06:15;;;;;;;4.15;1.55;;;;;;;;;;5118395;28;20032;-79
2022/04/15 06:08:40;;;;;;;4.20;1.45;;;;;;;;;;5117504;28;20051;-79
2022/04/15 06:11:06;;;;;;;4.07;1.50;;;;;;;;;;5119499;28;20122;-79
2022/04/15 06:13:31;;;;;;;6.70;1.42;;;;;;;;;;5118811;28;20024;-80
2022/04/15 06:15:58;;;;;;;3.35;1.50;;;;;;;;;;5082015;28;20110;-82
2022/04/15 06:18:31;;;;;;;2.20;1.50;;;;;;;;;;5118155;28;20031;-80
2022/04/15 06:20:56;;;;;;;3.55;1.67;;;;;;;;;;5083437;28;20054;-82
2022/04/15 06:23:22;;;;;;;4.00;1.65;;;;;;;;;;5099087;28;20114;-80
2022/04/15 06:25:47;;;;;;;4.28;1.40;;;;;;;;;;5098329;28;20038;-79
2022/04/15 06:28:13;;;;;;;5.03;1.50;;;;;;;;;;5117027;28;20399;-79
2022/04/15 06:30:38;;;;;;;4.22;1.38;;;;;;;;;;5099643;28;20031;-79
2022/04/15 06:33:09;;;;;;;5.30;1.65;;;;;;;;;;5116844;28;20542;-80
2022/04/15 06:35:35;;;;;;;3.40;1.55;;;;;;;;;;5082151;28;20034;-79
2022/04/15 06:38:01;;;;;;;3.10;1.40;;;;;;;;;;5097206;28;20058;-79
2022/04/15 06:40:26;;;;;;;2.55;1.63;;;;;;;;;;5097783;28;20028;-81
2022/04/15 06:42:51;;;;;;;2.72;1.42;;;;;;;;;;5097552;28;20027;-79
2022/04/15 06:45:17;;;;;;;3.35;1.80;;;;;;;;;;5098035;28;20028;-78
2022/04/15 06:47:42;;;;;;;5.13;1.73;;;;;;;;;;5116064;28;20043;-79
2022/04/15 06:50:08;;;;;;;2.92;1.50;;;;;;;;;;5097595;28;20114;-79
2022/04/15 06:52:34;;;;;;;13.77;1.98;;;;;;;;;;5115727;28;20532;-80
2022/04/15 06:54:59;;;;;;;4.07;1.58;;;;;;;;;;5115419;28;20059;-80
2022/04/15 06:57:24;;;;;;;5.60;1.73;;;;;;;;;;5115591;28;20047;-80
2022/04/15 06:59:50;;;;;;;3.78;1.38;;;;;;;;;;5117231;28;20462;-80
2022/04/15 07:02:15;;;;;;;4.85;1.40;;;;;;;;;;5117012;28;20099;-80
2022/04/15 07:04:40;;;;;;;7.97;1.55;;;;;;;;;;5102830;28;20027;-79
2022/04/15 07:07:06;;;;;;;6.97;2.67;;;;;;;;;;5122353;28;20051;-79
2022/04/15 07:09:31;;;;;;;6.57;1.80;;;;;;;;;;5121962;28;20026;-79
2022/04/15 07:11:57;;;;;;;4.43;1.70;;;;;;;;;;5121390;28;20024;-78
2022/04/15 07:14:22;;;;;;;4.13;1.75;;;;;;;;;;5101421;28;20491;-81
2022/04/15 07:16:48;;;;;;;5.05;1.50;;;;;;;;;;5080764;28;20043;-79
2022/04/15 07:19:13;;;;;;;4.70;1.40;;;;;;;;;;5079617;28;20114;-82
2022/04/15 07:21:41;;;;;;;4.13;1.58;;;;;;;;;;5078096;28;20115;-80
2022/04/15 07:24:07;;;;;;;4.20;1.33;;;;;;;;;;5078194;28;20110;-80
2022/04/15 07:26:32;;;;;;;2.55;1.48;;;;;;;;;;5061583;28;20035;-78
2022/04/15 07:28:57;;;;;;;6.28;1.60;;;;;;;;;;5078158;28;20032;-78
2022/04/15 07:31:24;;;;;;;3.40;1.42;;;;;;;;;;5078257;28;20124;-80
2022/04/15 07:33:50;;;;;;;3.30;1.30;;;;;;;;;;5061783;28;20085;-80
2022/04/15 07:36:42;;;;;;;4.85;1.50;;;;;;;;;;5096412;28;20044;-81
2022/04/15 07:39:09;;;;;;;4.20;1.38;;;;;;;;;;5065456;28;20085;-79
2022/04/15 07:41:36;;;;;;;5.97;1.42;;;;;;;;;;5057326;28;20032;-79
2022/04/15 07:44:06;;;;;;;2.22;1.30;;;;;;;;;;5074538;28;20083;-82
2022/04/15 07:46:33;;;;;;;4.28;1.48;;;;;;;;;;5075633;28;20382;-78
2022/04/15 07:49:01;;;;;;;7.88;1.60;;;;;;;;;;5092996;28;20039;-76
2022/04/15 07:51:27;;;;;;;8.23;1.50;;;;;;;;;;5077250;28;20356;-76
2022/04/15 07:53:53;;;;;;;5.40;1.55;;;;;;;;;;5056079;28;20379;-76
2022/04/15 07:56:19;;;;;;;9.63;1.85;;;;;;;;;;5094017;28;20036;-77
2022/04/15 07:58:44;;;;;;;6.72;1.30;;;;;;;;;;5076584;28;20471;-76
2022/04/15 08:01:12;;;;;;;3.40;1.10;;;;;;;;;;5094379;28;20051;-78
2022/04/15 08:03:40;;;;;;;5.45;1.70;;;;;;;;;;5094538;28;20028;-77
2022/04/15 08:06:05;;;;;;;3.03;1.40;;;;;;;;;;5095055;28;20028;-77
2022/04/15 08:08:31;;;;;;;5.88;1.40;;;;;;;;;;5076178;28;20107;-78
2022/04/15 08:10:57;;;;;;;5.07;1.30;;;;;;;;;;5060892;28;20024;-78
2022/04/15 08:13:23;;;;;;;5.88;1.73;;;;;;;;;;5076762;28;20024;-79
2022/04/15 08:15:56;;;;;;;4.30;1.67;;;;;;;;;;5057635;28;20030;-78
2022/04/15 08:18:21;;;;;;;5.00;1.60;;;;;;;;;;5043148;28;20051;-79
2022/04/15 08:20:48;;;;;;;2.47;1.52;;;;;;;;;;5093569;28;20024;-81
2022/04/15 08:23:14;;;;;;;3.70;1.52;;;;;;;;;;5074075;28;20028;-79
2022/04/15 08:25:39;;;;;;;8.43;1.52;;;;;;;;;;5093355;28;20081;-79
2022/04/15 08:28:05;;;;;;;13.65;1.50;;;;;;;;;;5094294;28;20386;-83
2022/04/15 08:30:33;;;;;;;2.03;1.20;;;;;;;;;;5059472;28;20123;-82
2022/04/15 08:32:59;;;;;;;7.82;1.30;;;;;;;;;;5073031;28;20028;-82
2022/04/15 08:37:57;;;;;;;14.25;1.98;;;;;;;;;;4972189;28;20050;-82
2022/04/15 08:40:23;;;;;;;4.05;1.70;;;;;;;;;;4952501;28;20038;-81
2022/04/15 08:42:49;;;;;;;2.67;1.45;;;;;;;;;;4986904;28;20058;-81
2022/04/15 08:45:16;;;;;;;4.78;1.35;;;;;;;;;;4970843;28;20034;-84
2022/04/15 08:47:42;;;;;;;11.02;1.55;;;;;;;;;;4953216;28;20077;-85
2022/04/15 08:50:10;;;;;;;6.65;1.40;;;;;;;;;;4971233;28;20031;-83
2022/04/15 08:52:41;;;;;;;7.20;1.25;;;;;;;;;;4951826;28;20406;-83
2022/04/15 08:55:07;;;;;;;5.68;1.27;;;;;;;;;;4969057;28;20022;-85
2022/04/15 08:57:33;;;;;;;6.55;1.25;;;;;;;;;;4964730;28;20039;-82
2022/04/15 08:59:59;;;;;;;8.18;1.30;;;;;;;;;;4965929;28;20106;-86
2022/04/15 09:02:37;;;;;;;6.63;1.30;;;;;;;;;;4955594;28;20061;-88
2022/04/15 09:05:06;;;;;;;3.65;1.60;;;;;;;;;;4957493;28;20062;-81
2022/04/15 09:07:35;;;;;;;3.72;1.63;;;;;;;;;;4973623;28;20113;-82
2022/04/15 09:10:02;;;;;;;9.80;2.10;;;;;;;;;;4943605;28;20035;-79
2022/04/15 09:12:33;;;;;;;6.45;2.13;;;;;;;;;;4958030;28;20035;-78
2022/04/15 09:15:07;;;;;;;8.57;1.58;;;;;;;;;;4972649;28;20061;-82
2022/04/15 09:17:55;;;;;;;5.78;1.90;;;;;;;;;;4967780;28;20129;-81
2022/04/15 09:20:22;;;;;;;4.20;1.67;;;;;;;;;;4957054;28;20039;-81
2022/04/15 09:22:53;;;;;;;5.50;2.22;;;;;;;;;;4948593;29;20027;-80
2022/04/15 09:25:24;;;;;;;12.50;2.30;;;;;;;;;;4951582;29;20042;-81
2022/04/15 09:27:54;;;;;;;4.68;2.05;;;;;;;;;;4951073;28;20019;-81
2022/04/15 09:30:33;;;;;;;8.20;2.20;;;;;;;;;;4938454;29;20063;-80
2022/04/15 09:33:03;;;;;;;7.03;2.33;;;;;;;;;;4946930;29;20418;-79
2022/04/15 09:35:29;;;;;;;8.77;2.10;;;;;;;;;;4920098;29;20050;-79
2022/04/15 09:38:03;;;;;;;6.25;1.80;;;;;;;;;;4919878;29;20051;-80
2022/04/15 09:40:32;;;;;;;7.47;2.25;;;;;;;;;;4904755;29;20175;-80
2022/04/15 09:42:58;;;;;;;5.88;1.90;;;;;;;;;;4915114;29;20023;-80
2022/04/15 09:45:26;;;;;;;4.55;1.90;;;;;;;;;;4942274;29;20027;-78
2022/04/15 09:47:53;;;;;;;6.22;1.55;;;;;;;;;;4935443;29;20109;-80
2022/04/15 09:50:26;;;;;;;3.22;1.90;;;;;;;;;;4914195;29;20111;-78
2022/04/15 09:52:52;;;;;;;5.18;1.75;;;;;;;;;;4945490;29;20122;-78
2022/04/15 09:55:23;;;;;;;5.57;1.90;;;;;;;;;;4938898;29;20121;-79
2022/04/15 09:57:49;;;;;;;3.75;1.67;;;;;;;;;;4920040;29;20517;-84
2022/04/15 10:00:18;;;;;;;2.92;1.50;;;;;;;;;;4923217;29;20524;-83
2022/04/15 10:02:50;;;;;;;8.82;1.60;;;;;;;;;;4930667;29;20039;-80
2022/04/15 10:05:16;;;;;;;5.85;1.50;;;;;;;;;;4940103;29;20465;-79
2022/04/15 10:07:42;;;;;;;5.90;1.48;;;;;;;;;;4896056;29;20075;-79
2022/04/15 10:10:12;;;;;;;3.13;1.60;;;;;;;;;;4914559;29;20032;-79
2022/04/15 10:12:39;;;;;;;2.10;1.50;;;;;;;;;;4914127;29;20315;-80
2022/04/15 10:15:12;;;;;;;5.90;1.60;;;;;;;;;;4922390;29;20358;-83
2022/04/15 10:17:40;;;;;;;2.72;1.50;;;;;;;;;;4931514;29;20546;-80
2022/04/15 10:20:07;;;;;;;6.35;1.75;;;;;;;;;;4898647;29;20027;-77
2022/04/15 10:22:35;;;;;;;4.10;1.55;;;;;;;;;;4934696;29;20138;-78
2022/04/15 10:25:01;;;;;;;5.22;2.25;;;;;;;;;;4931378;29;20522;-77
2022/04/15 10:27:30;;;;;;;5.00;1.77;;;;;;;;;;4901263;29;20147;-80
2022/04/15 10:30:00;;;;;;;2.72;1.60;;;;;;;;;;4927702;29;20040;-80
2022/04/15 10:32:25;;;;;;;1.83;1.40;;;;;;;;;;4913626;29;20055;-80
2022/04/15 10:34:51;;;;;;;4.93;2.33;;;;;;;;;;4928802;29;20043;-79
2022/04/15 10:37:17;;;;;;;10.43;2.25;;;;;;;;;;4917295;28;20058;-79
2022/04/15 10:39:50;;;;;;;2.28;1.90;;;;;;;;;;4938891;28;20086;-79
2022/04/15 10:42:19;;;;;;;5.45;2.72;;;;;;;;;;4957956;28;20038;-79
2022/04/15 10:44:45;;;;;;;4.97;2.40;;;;;;;;;;4920412;28;20223;-79
2022/04/15 10:47:19;;;;;;;4.65;2.47;;;;;;;;;;4942951;29;20563;-78
2022/04/15 10:50:04;;;;;;;3.22;2.00;;;;;;;;;;4946477;28;20023;-78
2022/04/15 10:52:31;;;;;;;8.68;1.95;;;;;;;;;;4948041;28;20024;-77
2022/04/15 10:55:02;;;;;;;4.43;2.08;;;;;;;;;;4951274;29;20027;-79
2022/04/15 10:57:36;;;;;;;8.38;2.22;;;;;;;;;;4951488;29;20105;-77
2022/04/15 11:02:53;;;;;;;3.78;2.20;;;;;;;;;;4949161;29;20042;-80
2022/04/15 11:05:43;;;;;;;3.63;2.13;;;;;;;;;;4937305;29;20031;-80
2022/04/15 11:08:14;;;;;;;6.47;2.15;;;;;;;;;;4951615;29;20099;-80
2022/04/15 11:10:42;;;;;;;4.45;2.00;;;;;;;;;;4936833;29;20032;-80
2022/04/15 11:13:33;;;;;;;4.45;2.00;;;;;;;;;;4936730;29;20032;-78
2022/04/15 11:16:10;;;;;;;3.45;1.95;;;;;;;;;;4935721;29;20043;-78
2022/04/15 11:18:58;;;;;;;4.95;2.10;;;;;;;;;;4937227;29;20050;-79
2022/04/15 11:21:27;;;;;;;3.72;2.25;;;;;;;;;;4935549;29;20427;-79
2022/04/15 11:23:53;;;;;;;4.25;2.45;;;;;;;;;;4935306;29;20353;-79
2022/04/15 11:26:20;;;;;;;3.13;2.08;;;;;;;;;;4950659;29;20027;-79
2022/04/15 11:28:47;;;;;;;6.97;2.80;;;;;;;;;;4951451;29;20123;-79
2022/04/15 11:31:33;;;;;;;4.80;2.50;;;;;;;;;;4951176;29;20035;-79
2022/04/15 11:34:03;;;;;;;3.67;2.20;;;;;;;;;;4950842;29;20036;-79
2022/04/15 11:36:31;;;;;;;5.70;2.75;;;;;;;;;;4932338;29;20103;-80
2022/04/15 11:38:59;;;;;;;7.47;2.65;;;;;;;;;;4903716;29;20027;-81
2022/04/15 11:41:25;;;;;;;4.53;2.50;;;;;;;;;;4919670;29;20020;-80
2022/04/15 11:43:55;;;;;;;5.38;3.05;;;;;;;;;;4918985;29;20492;-80
2022/04/15 11:46:20;;;;;;;5.60;2.95;;;;;;;;;;4934787;29;20032;-80
2022/04/15 11:48:46;;;;;;;6.82;2.90;;;;;;;;;;4935738;29;20454;-78
2022/04/15 11:51:11;;;;;;;8.30;2.95;;;;;;;;;;4918196;29;20442;-80
2022/04/15 11:53:36;;;;;;;5.18;2.63;;;;;;;;;;4934635;29;20438;-80
2022/04/15 11:56:02;;;;;;;6.18;3.10;;;;;;;;;;4934696;29;20040;-80
2022/04/15 11:58:35;;;;;;;2.70;2.28;;;;;;;;;;4934400;29;20054;-80
2022/04/15 12:01:02;;;;;;;3.75;2.63;;;;;;;;;;4918729;29;20024;-80
2022/04/15 12:03:28;;;;;;;2.40;2.00;;;;;;;;;;4905006;29;20032;-77
2022/04/15 12:05:57;;;;;;;3.72;2.42;;;;;;;;;;4903391;29;20111;-80
2022/04/15 12:08:23;;;;;;;5.95;2.75;;;;;;;;;;4918587;29;20046;-81
2022/04/15 12:10:49;;;;;;;7.30;3.03;;;;;;;;;;4903231;29;20077;-81
2022/04/15 12:13:16;;;;;;;3.88;2.42;;;;;;;;;;4902700;29;20042;-80
2022/04/15 12:15:43;;;;;;;4.53;2.50;;;;;;;;;;4902469;29;20039;-80
2022/04/15 12:18:10;;;;;;;2.97;2.13;;;;;;;;;;4918317;29;20438;-80
2022/04/15 12:20:37;;;;;;;6.90;2.40;;;;;;;;;;4918587;29;20020;-80
2022/04/15 12:23:04;;;;;;;4.00;2.53;;;;;;;;;;4918298;29;20101;-79
2022/04/15 12:26:05;;;;;;;3.50;2.28;;;;;;;;;;4934126;29;20449;-79
2022/04/15 12:31:02;;;;;;;3.70;2.17;;;;;;;;;;4910148;29;20131;-79
2022/04/15 12:33:27;;;;;;;3.97;2.50;;;;;;;;;;4936445;29;20426;-80
2022/04/15 12:36:01;;;;;;;3.75;2.45;;;;;;;;;;4919756;29;20028;-79
2022/04/15 12:38:27;;;;;;;;;;;;;;;;;;4922376;29;20066;-79
2022/04/15 12:40:58;;;;;;;4.55;2.13;;;;;;;;;;4936540;29;19914;-80
2022/04/15 12:43:24;;;;;;;4.07;2.40;;;;;;;;;;4905847;29;20035;-79
2022/04/15 12:45:53;;;;;;;4.45;2.22;;;;;;;;;;4937791;29;20035;-79
2022/04/15 12:48:18;;;;;;;4.78;2.65;;;;;;;;;;4925395;29;20045;-79
2022/04/15 12:50:52;;;;;;;3.17;2.35;;;;;;;;;;4914970;29;20035;-79
2022/04/15 12:53:22;;;;;;;3.90;2.33;;;;;;;;;;4908838;29;20038;-79
2022/04/15 12:55:49;;;;;;;5.90;2.38;;;;;;;;;;4906187;29;20438;-80
2022/04/15 12:58:26;;;;;;;3.40;2.20;;;;;;;;;;4905831;29;20110;-80
2022/04/15 13:00:58;;;;;;;4.57;2.45;;;;;;;;;;4904434;29;20023;-79
2022/04/15 13:03:25;;;;;;;3.55;2.13;;;;;;;;;;4903732;29;20030;-79
2022/04/15 13:05:53;;;;;;;2.42;1.92;;;;;;;;;;4934902;29;20035;-79
2022/04/15 13:08:20;;;;;;;3.05;2.03;;;;;;;;;;4919358;29;20039;-79
2022/04/15 13:10:47;;;;;;;3.63;2.35;;;;;;;;;;4917944;29;20028;-79
2022/04/15 13:13:13;;;;;;;3.17;2.20;;;;;;;;;;4933938;29;20019;-80
2022/04/15 13:15:38;;;;;;;5.28;2.40;;;;;;;;;;4934603;29;20023;-77
2022/04/15 13:18:04;;;;;;;3.85;2.20;;;;;;;;;;4935948;29;20352;-79
2022/04/15 13:20:30;;;;;;;3.15;1.80;;;;;;;;;;4917780;29;20063;-80
2022/04/15 13:22:59;;;;;;;4.13;2.17;;;;;;;;;;4917113;29;20062;-80
2022/04/15 13:25:25;;;;;;;2.80;2.03;;;;;;;;;;4917386;29;20416;-78
2022/04/15 13:27:51;;;;;;;3.08;2.00;;;;;;;;;;4917317;29;20056;-81
2022/04/15 13:30:16;;;;;;;2.63;2.35;;;;;;;;;;4933351;29;20047;-78
2022/04/15 13:32:42;;;;;;;4.75;2.00;;;;;;;;;;4934056;29;20039;-77
2022/04/15 13:35:07;;;;;;;2.10;1.90;;;;;;;;;;4934042;29;20496;-77
2022/04/15 13:37:34;;;;;;;4.60;2.08;;;;;;;;;;4943792;29;20059;-78
2022/04/15 13:40:00;;;;;;;4.22;1.92;;;;;;;;;;4932788;29;20504;-79
2022/04/15 13:42:26;;;;;;;2.13;1.80;;;;;;;;;;4948902;29;20106;-81
2022/04/15 13:44:53;;;;;;;2.25;1.80;;;;;;;;;;4948792;29;20116;-81
2022/04/15 13:47:18;;;;;;;3.95;1.85;;;;;;;;;;4949140;29;20167;-80
2022/04/15 13:49:48;;;;;;;4.13;2.15;;;;;;;;;;4932658;29;20489;-81
2022/04/15 13:57:43;;;;;;;3.55;2.08;;;;;;;;;;4933002;29;20114;-80
2022/04/15 14:00:12;;;;;;;3.55;2.08;;;;;;;;;;4933978;29;20075;-79
2022/04/15 14:02:37;;;;;;;4.35;2.00;;;;;;;;;;4932496;29;20394;-80
2022/04/15 14:05:03;;;;;;;2.67;1.90;;;;;;;;;;4948030;29;20134;-80
2022/04/15 14:07:29;;;;;;;1.70;1.60;;;;;;;;;;4947862;29;20076;-81
2022/04/15 14:09:55;;;;;;;1.90;1.75;;;;;;;;;;4933684;29;20347;-81
2022/04/15 14:12:20;;;;;;;2.80;1.70;;;;;;;;;;4948052;29;20035;-81
2022/04/15 14:14:46;;;;;;;1.58;1.48;;;;;;;;;;4947818;29;20358;-80
2022/04/15 14:17:11;;;;;;;2.90;1.77;;;;;;;;;;4948083;29;20118;-80
2022/04/15 14:19:37;;;;;;;2.78;1.70;;;;;;;;;;4932145;29;20035;-80
2022/04/15 14:22:02;;;;;;;2.47;2.20;;;;;;;;;;4948123;29;20059;-79
2022/04/15 14:24:28;;;;;;;4.07;2.13;;;;;;;;;;4947759;29;20047;-79
2022/04/15 14:26:54;;;;;;;1.98;1.77;;;;;;;;;;4916279;29;20032;-80
2022/04/15 14:29:21;;;;;;;3.08;1.70;;;;;;;;;;4931711;29;20390;-80
2022/04/15 14:31:46;;;;;;;2.30;1.67;;;;;;;;;;4947627;29;20028;-80
2022/04/15 14:34:12;;;;;;;1.67;1.58;;;;;;;;;;4947637;29;20533;-81
2022/04/15 14:36:37;;;;;;;1.80;1.70;;;;;;;;;;4932954;29;20085;-80
2022/04/15 14:39:03;;;;;;;2.80;1.75;;;;;;;;;;4947391;29;20086;-81
2022/04/15 14:41:28;;;;;;;1.90;1.70;;;;;;;;;;4947567;29;20067;-81
2022/04/15 14:43:54;;;;;;;1.77;1.40;;;;;;;;;;4947515;29;20084;-80
2022/04/15 14:46:19;;;;;;;5.30;2.00;;;;;;;;;;4947468;29;20102;-79
2022/04/15 14:48:47;;;;;;;1.77;1.50;;;;;;;;;;4933156;29;20023;-79
2022/04/15 14:51:13;;;;;;;1.70;1.60;;;;;;;;;;4933325;29;20044;-78
2022/04/15 14:53:38;;;;;;;2.35;1.70;;;;;;;;;;4933014;29;20032;-78
2022/04/15 14:56:04;;;;;;;3.55;2.35;;;;;;;;;;4947780;29;20320;-78